sensor_id;sensor_type;location;lat;lon;timestamp;temperature;humidity
15426;DHT22;7812;50.072;7.036;2023-09-12T00:01:07;19.10;99.90
15426;DHT22;7812;50.072;7.036;2023-09-12T00:03:34;19.10;99.90
15426;DHT22;7812;50.072;7.036;2023-09-12T00:06:01;19.10;99.90
15426;DHT22;7812;50.072;7.036;2023-09-12T00:08:27;19.10;99.90
15426;DHT22;7812;50.072;7.036;2023-09-12T00:11:04;19.00;99.90
15426;DHT22;7812;50.072;7.036;2023-09-12T00:13:30;18.80;99.90
15426;DHT22;7812;50.072;7.036;2023-09-12T00:15:56;18.90;99.90
15426;DHT22;7812;50.072;7.036;2023-09-12T00:18:22;19.00;99.90
15426;DHT22;7812;50.072;7.036;2023-09-12T00:20:50;19.00;99.90
15426;DHT22;7812;50.072;7.036;2023-09-12T00:23:16;19.00;99.90
15426;DHT22;7812;50.072;7.036;2023-09-12T00:25:42;19.10;99.90
15426;DHT22;7812;50.072;7.036;2023-09-12T00:28:08;19.20;99.90
15426;DHT22;7812;50.072;7.036;2023-09-12T00:30:57;19.10;99.90
15426;DHT22;7812;50.072;7.036;2023-09-12T00:36:44;19.00;99.90
15426;DHT22;7812;50.072;7.036;2023-09-12T00:39:10;19.00;99.90
15426;DHT22;7812;50.072;7.036;2023-09-12T00:41:35;19.00;99.90
15426;DHT22;7812;50.072;7.036;2023-09-12T00:44:01;19.00;99.90
15426;DHT22;7812;50.072;7.036;2023-09-12T00:46:27;18.90;99.90
15426;DHT22;7812;50.072;7.036;2023-09-12T00:48:55;19.00;99.90
15426;DHT22;7812;50.072;7.036;2023-09-12T00:51:24;19.00;99.90
15426;DHT22;7812;50.072;7.036;2023-09-12T00:53:51;18.90;99.90
15426;DHT22;7812;50.072;7.036;2023-09-12T00:56:17;18.90;99.90
15426;DHT22;7812;50.072;7.036;2023-09-12T00:58:43;19.00;99.90
15426;DHT22;7812;50.072;7.036;2023-09-12T01:01:11;19.00;99.90
15426;DHT22;7812;50.072;7.036;2023-09-12T01:03:37;19.10;99.90
15426;DHT22;7812;50.072;7.036;2023-09-12T01:06:03;19.20;99.90
15426;DHT22;7812;50.072;7.036;2023-09-12T01:08:31;19.10;99.90
15426;DHT22;7812;50.072;7.036;2023-09-12T01:10:57;19.10;99.90
15426;DHT22;7812;50.072;7.036;2023-09-12T01:13:23;19.00;99.90
15426;DHT22;7812;50.072;7.036;2023-09-12T01:15:49;18.90;99.90
15426;DHT22;7812;50.072;7.036;2023-09-12T01:18:15;18.90;99.90
15426;DHT22;7812;50.072;7.036;2023-09-12T01:26:17;18.80;99.90
15426;DHT22;7812;50.072;7.036;2023-09-12T01:28:51;18.70;99.90
15426;DHT22;7812;50.072;7.036;2023-09-12T01:31:19;18.50;99.90
15426;DHT22;7812;50.072;7.036;2023-09-12T01:33:45;18.50;99.90
15426;DHT22;7812;50.072;7.036;2023-09-12T01:36:10;18.40;99.90
15426;DHT22;7812;50.072;7.036;2023-09-12T01:38:36;18.50;99.90
15426;DHT22;7812;50.072;7.036;2023-09-12T01:41:02;18.40;99.90
15426;DHT22;7812;50.072;7.036;2023-09-12T01:43:29;18.30;99.90
15426;DHT22;7812;50.072;7.036;2023-09-12T01:45:58;18.20;99.90
15426;DHT22;7812;50.072;7.036;2023-09-12T01:48:31;18.30;99.90
15426;DHT22;7812;50.072;7.036;2023-09-12T01:51:00;18.30;99.90
15426;DHT22;7812;50.072;7.036;2023-09-12T01:53:26;18.30;99.90
15426;DHT22;7812;50.072;7.036;2023-09-12T01:55:53;18.30;99.90
15426;DHT22;7812;50.072;7.036;2023-09-12T01:58:19;18.20;99.90
15426;DHT22;7812;50.072;7.036;2023-09-12T02:00:45;18.30;99.90
15426;DHT22;7812;50.072;7.036;2023-09-12T02:03:11;18.20;99.90
15426;DHT22;7812;50.072;7.036;2023-09-12T02:05:38;18.20;99.90
15426;DHT22;7812;50.072;7.036;2023-09-12T02:08:04;18.20;99.90
15426;DHT22;7812;50.072;7.036;2023-09-12T02:10:30;18.20;99.90
15426;DHT22;7812;50.072;7.036;2023-09-12T02:12:57;18.00;99.90
15426;DHT22;7812;50.072;7.036;2023-09-12T02:15:22;18.10;99.90
15426;DHT22;7812;50.072;7.036;2023-09-12T02:17:48;18.10;99.90
15426;DHT22;7812;50.072;7.036;2023-09-12T02:20:16;18.10;99.90
15426;DHT22;7812;50.072;7.036;2023-09-12T02:22:42;18.00;99.90
15426;DHT22;7812;50.072;7.036;2023-09-12T02:25:08;17.90;99.90
15426;DHT22;7812;50.072;7.036;2023-09-12T02:27:34;17.90;99.90
15426;DHT22;7812;50.072;7.036;2023-09-12T02:29:59;17.90;99.90
15426;DHT22;7812;50.072;7.036;2023-09-12T02:32:25;18.00;99.90
15426;DHT22;7812;50.072;7.036;2023-09-12T02:34:51;18.00;99.90
15426;DHT22;7812;50.072;7.036;2023-09-12T02:37:19;17.90;99.90
15426;DHT22;7812;50.072;7.036;2023-09-12T02:39:44;17.90;99.90
15426;DHT22;7812;50.072;7.036;2023-09-12T02:42:10;17.70;99.90
15426;DHT22;7812;50.072;7.036;2023-09-12T02:44:36;17.70;99.90
15426;DHT22;7812;50.072;7.036;2023-09-12T02:47:03;17.60;99.90
15426;DHT22;7812;50.072;7.036;2023-09-12T02:49:28;17.60;99.90
15426;DHT22;7812;50.072;7.036;2023-09-12T02:51:54;17.50;99.90
15426;DHT22;7812;50.072;7.036;2023-09-12T02:54:20;17.60;99.90
15426;DHT22;7812;50.072;7.036;2023-09-12T02:56:45;17.60;99.90
15426;DHT22;7812;50.072;7.036;2023-09-12T02:59:11;17.60;99.90
15426;DHT22;7812;50.072;7.036;2023-09-12T03:01:37;17.60;99.90
15426;DHT22;7812;50.072;7.036;2023-09-12T03:04:02;17.60;99.90
15426;DHT22;7812;50.072;7.036;2023-09-12T03:06:29;17.50;99.90
15426;DHT22;7812;50.072;7.036;2023-09-12T03:08:56;17.60;99.90
15426;DHT22;7812;50.072;7.036;2023-09-12T03:11:22;17.60;99.90
15426;DHT22;7812;50.072;7.036;2023-09-12T03:13:47;17.50;99.90
15426;DHT22;7812;50.072;7.036;2023-09-12T03:16:14;17.40;99.90
15426;DHT22;7812;50.072;7.036;2023-09-12T03:18:40;17.40;99.90
15426;DHT22;7812;50.072;7.036;2023-09-12T03:21:06;17.30;99.90
15426;DHT22;7812;50.072;7.036;2023-09-12T03:23:32;17.30;99.90
15426;DHT22;7812;50.072;7.036;2023-09-12T03:26:05;17.30;99.90
15426;DHT22;7812;50.072;7.036;2023-09-12T03:28:31;17.30;99.90
15426;DHT22;7812;50.072;7.036;2023-09-12T03:31:09;17.30;99.90
15426;DHT22;7812;50.072;7.036;2023-09-12T03:33:39;17.20;99.90
15426;DHT22;7812;50.072;7.036;2023-09-12T03:36:08;17.20;99.90
15426;DHT22;7812;50.072;7.036;2023-09-12T03:38:34;17.20;99.90
15426;DHT22;7812;50.072;7.036;2023-09-12T03:41:01;17.20;99.90
15426;DHT22;7812;50.072;7.036;2023-09-12T03:43:27;17.20;99.90
15426;DHT22;7812;50.072;7.036;2023-09-12T03:45:53;17.20;99.90
15426;DHT22;7812;50.072;7.036;2023-09-12T03:48:19;17.20;99.90
15426;DHT22;7812;50.072;7.036;2023-09-12T03:50:45;17.10;99.90
15426;DHT22;7812;50.072;7.036;2023-09-12T03:53:11;17.20;99.90
15426;DHT22;7812;50.072;7.036;2023-09-12T03:55:37;17.20;99.90
15426;DHT22;7812;50.072;7.036;2023-09-12T03:58:03;17.30;99.90
15426;DHT22;7812;50.072;7.036;2023-09-12T04:00:29;17.30;99.90
15426;DHT22;7812;50.072;7.036;2023-09-12T04:02:55;17.40;99.90
15426;DHT22;7812;50.072;7.036;2023-09-12T04:05:20;17.40;99.90
15426;DHT22;7812;50.072;7.036;2023-09-12T04:07:55;17.40;99.90
15426;DHT22;7812;50.072;7.036;2023-09-12T04:10:21;17.40;99.90
15426;DHT22;7812;50.072;7.036;2023-09-12T04:12:47;17.40;99.90
15426;DHT22;7812;50.072;7.036;2023-09-12T04:15:13;17.40;99.90
15426;DHT22;7812;50.072;7.036;2023-09-12T04:17:38;17.40;99.90
15426;DHT22;7812;50.072;7.036;2023-09-12T04:20:04;17.40;99.90
15426;DHT22;7812;50.072;7.036;2023-09-12T04:22:31;17.30;99.90
15426;DHT22;7812;50.072;7.036;2023-09-12T04:24:56;17.10;99.90
15426;DHT22;7812;50.072;7.036;2023-09-12T04:27:22;16.90;99.90
15426;DHT22;7812;50.072;7.036;2023-09-12T04:29:48;17.00;99.90
15426;DHT22;7812;50.072;7.036;2023-09-12T04:32:13;17.00;99.90
15426;DHT22;7812;50.072;7.036;2023-09-12T04:34:42;17.10;99.90
15426;DHT22;7812;50.072;7.036;2023-09-12T04:37:08;17.10;99.90
15426;DHT22;7812;50.072;7.036;2023-09-12T04:39:34;17.10;99.90
15426;DHT22;7812;50.072;7.036;2023-09-12T04:42:00;17.00;99.90
15426;DHT22;7812;50.072;7.036;2023-09-12T04:44:25;17.00;99.90
15426;DHT22;7812;50.072;7.036;2023-09-12T04:46:51;17.00;99.90
15426;DHT22;7812;50.072;7.036;2023-09-12T04:49:17;17.00;99.90
15426;DHT22;7812;50.072;7.036;2023-09-12T04:51:42;16.90;99.90
15426;DHT22;7812;50.072;7.036;2023-09-12T04:54:08;17.00;99.90
15426;DHT22;7812;50.072;7.036;2023-09-12T04:56:34;17.00;99.90
15426;DHT22;7812;50.072;7.036;2023-09-12T04:59:00;17.00;99.90
15426;DHT22;7812;50.072;7.036;2023-09-12T05:01:25;17.00;99.90
15426;DHT22;7812;50.072;7.036;2023-09-12T05:03:51;17.10;99.90
15426;DHT22;7812;50.072;7.036;2023-09-12T05:06:17;17.10;99.90
15426;DHT22;7812;50.072;7.036;2023-09-12T05:08:43;17.10;99.90
15426;DHT22;7812;50.072;7.036;2023-09-12T05:11:09;17.00;99.90
15426;DHT22;7812;50.072;7.036;2023-09-12T05:13:34;16.90;99.90
15426;DHT22;7812;50.072;7.036;2023-09-12T05:16:00;16.90;99.90
15426;DHT22;7812;50.072;7.036;2023-09-12T05:18:26;16.90;99.90
15426;DHT22;7812;50.072;7.036;2023-09-12T05:20:52;16.90;99.90
15426;DHT22;7812;50.072;7.036;2023-09-12T05:23:17;16.90;99.90
15426;DHT22;7812;50.072;7.036;2023-09-12T05:25:43;16.90;99.90
15426;DHT22;7812;50.072;7.036;2023-09-12T05:28:09;16.90;99.90
15426;DHT22;7812;50.072;7.036;2023-09-12T05:30:35;16.90;99.90
15426;DHT22;7812;50.072;7.036;2023-09-12T05:33:01;16.90;99.90
15426;DHT22;7812;50.072;7.036;2023-09-12T05:35:27;16.80;99.90
15426;DHT22;7812;50.072;7.036;2023-09-12T05:37:53;16.80;99.90
15426;DHT22;7812;50.072;7.036;2023-09-12T05:40:19;17.00;99.90
15426;DHT22;7812;50.072;7.036;2023-09-12T05:42:44;17.10;99.90
15426;DHT22;7812;50.072;7.036;2023-09-12T05:45:10;17.20;99.90
15426;DHT22;7812;50.072;7.036;2023-09-12T05:47:36;17.30;99.90
15426;DHT22;7812;50.072;7.036;2023-09-12T05:50:02;17.30;99.90
15426;DHT22;7812;50.072;7.036;2023-09-12T05:52:31;17.20;99.90
15426;DHT22;7812;50.072;7.036;2023-09-12T05:54:56;17.10;99.90
15426;DHT22;7812;50.072;7.036;2023-09-12T05:57:22;17.20;99.90
15426;DHT22;7812;50.072;7.036;2023-09-12T05:59:48;17.20;99.90
15426;DHT22;7812;50.072;7.036;2023-09-12T06:02:13;17.30;99.90
15426;DHT22;7812;50.072;7.036;2023-09-12T06:04:39;17.50;99.90
15426;DHT22;7812;50.072;7.036;2023-09-12T06:07:05;17.70;99.90
15426;DHT22;7812;50.072;7.036;2023-09-12T06:09:31;18.20;99.90
15426;DHT22;7812;50.072;7.036;2023-09-12T06:11:57;18.90;99.90
15426;DHT22;7812;50.072;7.036;2023-09-12T06:14:23;19.60;99.90
15426;DHT22;7812;50.072;7.036;2023-09-12T06:16:48;20.20;99.90
15426;DHT22;7812;50.072;7.036;2023-09-12T06:19:14;20.30;99.90
15426;DHT22;7812;50.072;7.036;2023-09-12T06:21:40;21.30;99.90
15426;DHT22;7812;50.072;7.036;2023-09-12T06:24:13;22.10;99.90
15426;DHT22;7812;50.072;7.036;2023-09-12T06:26:39;22.10;99.90
15426;DHT22;7812;50.072;7.036;2023-09-12T06:29:06;22.30;99.90
15426;DHT22;7812;50.072;7.036;2023-09-12T06:31:32;22.70;99.90
15426;DHT22;7812;50.072;7.036;2023-09-12T06:33:57;23.30;99.90
15426;DHT22;7812;50.072;7.036;2023-09-12T06:36:25;23.90;99.90
15426;DHT22;7812;50.072;7.036;2023-09-12T06:38:51;23.30;99.90
15426;DHT22;7812;50.072;7.036;2023-09-12T06:41:20;22.90;99.90
15426;DHT22;7812;50.072;7.036;2023-09-12T06:43:46;22.70;99.90
15426;DHT22;7812;50.072;7.036;2023-09-12T06:46:11;23.00;99.90
15426;DHT22;7812;50.072;7.036;2023-09-12T06:48:53;23.40;99.90
15426;DHT22;7812;50.072;7.036;2023-09-12T06:51:23;24.10;99.90
15426;DHT22;7812;50.072;7.036;2023-09-12T06:53:49;25.30;99.90
15426;DHT22;7812;50.072;7.036;2023-09-12T06:56:18;26.10;99.90
15426;DHT22;7812;50.072;7.036;2023-09-12T06:58:43;26.90;99.90
15426;DHT22;7812;50.072;7.036;2023-09-12T07:01:09;27.40;99.90
15426;DHT22;7812;50.072;7.036;2023-09-12T07:03:35;27.80;99.90
15426;DHT22;7812;50.072;7.036;2023-09-12T07:06:02;27.50;99.90
15426;DHT22;7812;50.072;7.036;2023-09-12T07:08:32;27.20;99.90
15426;DHT22;7812;50.072;7.036;2023-09-12T07:10:58;26.60;99.90
15426;DHT22;7812;50.072;7.036;2023-09-12T07:13:31;26.80;99.90
15426;DHT22;7812;50.072;7.036;2023-09-12T07:15:58;27.40;99.90
15426;DHT22;7812;50.072;7.036;2023-09-12T07:18:23;28.20;99.90
15426;DHT22;7812;50.072;7.036;2023-09-12T07:20:59;29.00;99.90
15426;DHT22;7812;50.072;7.036;2023-09-12T07:23:25;29.20;99.90
15426;DHT22;7812;50.072;7.036;2023-09-12T07:25:51;30.00;99.90
15426;DHT22;7812;50.072;7.036;2023-09-12T07:28:16;30.80;99.90
15426;DHT22;7812;50.072;7.036;2023-09-12T07:30:46;31.40;99.90
15426;DHT22;7812;50.072;7.036;2023-09-12T07:33:12;32.10;99.90
15426;DHT22;7812;50.072;7.036;2023-09-12T07:35:38;32.30;99.90
15426;DHT22;7812;50.072;7.036;2023-09-12T07:38:04;32.30;99.90
15426;DHT22;7812;50.072;7.036;2023-09-12T07:40:30;32.40;99.90
15426;DHT22;7812;50.072;7.036;2023-09-12T07:42:56;32.70;99.90
15426;DHT22;7812;50.072;7.036;2023-09-12T07:45:22;33.00;99.90
15426;DHT22;7812;50.072;7.036;2023-09-12T07:47:47;33.10;99.90
15426;DHT22;7812;50.072;7.036;2023-09-12T07:50:15;33.80;99.90
15426;DHT22;7812;50.072;7.036;2023-09-12T07:52:41;34.10;99.90
15426;DHT22;7812;50.072;7.036;2023-09-12T07:55:10;34.20;99.90
15426;DHT22;7812;50.072;7.036;2023-09-12T07:57:35;34.30;99.90
15426;DHT22;7812;50.072;7.036;2023-09-12T08:00:03;34.30;99.90
15426;DHT22;7812;50.072;7.036;2023-09-12T08:02:30;34.70;99.90
15426;DHT22;7812;50.072;7.036;2023-09-12T08:04:56;32.30;99.90
15426;DHT22;7812;50.072;7.036;2023-09-12T08:07:22;32.20;99.90
15426;DHT22;7812;50.072;7.036;2023-09-12T08:09:56;32.50;99.90
15426;DHT22;7812;50.072;7.036;2023-09-12T08:12:25;33.80;99.90
15426;DHT22;7812;50.072;7.036;2023-09-12T08:14:54;34.50;99.90
15426;DHT22;7812;50.072;7.036;2023-09-12T08:17:23;35.70;99.90
15426;DHT22;7812;50.072;7.036;2023-09-12T08:19:49;36.60;99.90
15426;DHT22;7812;50.072;7.036;2023-09-12T08:22:15;36.70;99.90
15426;DHT22;7812;50.072;7.036;2023-09-12T08:24:40;36.50;99.90
15426;DHT22;7812;50.072;7.036;2023-09-12T08:27:07;36.60;99.90
15426;DHT22;7812;50.072;7.036;2023-09-12T08:29:34;36.80;99.90
15426;DHT22;7812;50.072;7.036;2023-09-12T08:32:01;36.70;99.90
15426;DHT22;7812;50.072;7.036;2023-09-12T08:34:26;36.40;99.90
15426;DHT22;7812;50.072;7.036;2023-09-12T08:36:52;36.30;99.90
15426;DHT22;7812;50.072;7.036;2023-09-12T08:39:24;35.80;99.90
15426;DHT22;7812;50.072;7.036;2023-09-12T08:41:50;35.80;99.90
15426;DHT22;7812;50.072;7.036;2023-09-12T08:44:16;36.50;99.90
15426;DHT22;7812;50.072;7.036;2023-09-12T08:46:44;36.40;99.90
15426;DHT22;7812;50.072;7.036;2023-09-12T08:49:10;36.60;99.90
15426;DHT22;7812;50.072;7.036;2023-09-12T08:51:40;36.50;99.90
15426;DHT22;7812;50.072;7.036;2023-09-12T08:54:09;37.00;99.90
15426;DHT22;7812;50.072;7.036;2023-09-12T08:56:36;36.30;99.90
15426;DHT22;7812;50.072;7.036;2023-09-12T08:59:04;35.90;99.90
15426;DHT22;7812;50.072;7.036;2023-09-12T09:01:31;36.20;99.90
15426;DHT22;7812;50.072;7.036;2023-09-12T09:03:58;37.20;99.90
15426;DHT22;7812;50.072;7.036;2023-09-12T09:06:24;36.40;99.90
15426;DHT22;7812;50.072;7.036;2023-09-12T09:08:51;35.80;99.90
15426;DHT22;7812;50.072;7.036;2023-09-12T09:11:17;36.20;99.90
15426;DHT22;7812;50.072;7.036;2023-09-12T09:13:42;35.70;99.90
15426;DHT22;7812;50.072;7.036;2023-09-12T09:16:12;35.20;99.90
15426;DHT22;7812;50.072;7.036;2023-09-12T09:21:22;36.00;99.90
15426;DHT22;7812;50.072;7.036;2023-09-12T09:23:54;35.70;99.90
15426;DHT22;7812;50.072;7.036;2023-09-12T09:26:20;35.10;99.90
15426;DHT22;7812;50.072;7.036;2023-09-12T09:29:12;35.40;99.90
15426;DHT22;7812;50.072;7.036;2023-09-12T09:31:43;35.60;99.90
15426;DHT22;7812;50.072;7.036;2023-09-12T09:34:20;35.80;99.90
15426;DHT22;7812;50.072;7.036;2023-09-12T09:36:49;36.90;99.90
15426;DHT22;7812;50.072;7.036;2023-09-12T09:39:17;37.80;99.90
15426;DHT22;7812;50.072;7.036;2023-09-12T09:41:50;38.50;99.90
15426;DHT22;7812;50.072;7.036;2023-09-12T09:44:17;39.20;99.90
15426;DHT22;7812;50.072;7.036;2023-09-12T09:46:44;38.80;99.90
15426;DHT22;7812;50.072;7.036;2023-09-12T09:49:11;38.20;99.90
15426;DHT22;7812;50.072;7.036;2023-09-12T09:51:43;36.90;99.90
15426;DHT22;7812;50.072;7.036;2023-09-12T09:54:10;36.50;99.90
15426;DHT22;7812;50.072;7.036;2023-09-12T09:56:53;36.40;99.90
15426;DHT22;7812;50.072;7.036;2023-09-12T09:59:22;36.30;99.90
15426;DHT22;7812;50.072;7.036;2023-09-12T10:01:55;37.10;99.90
15426;DHT22;7812;50.072;7.036;2023-09-12T10:04:22;36.90;99.90
15426;DHT22;7812;50.072;7.036;2023-09-12T10:06:49;35.50;99.90
15426;DHT22;7812;50.072;7.036;2023-09-12T10:09:16;36.80;99.90
15426;DHT22;7812;50.072;7.036;2023-09-12T10:11:46;37.10;99.90
15426;DHT22;7812;50.072;7.036;2023-09-12T10:14:19;37.20;99.90
15426;DHT22;7812;50.072;7.036;2023-09-12T10:19:38;36.80;99.90
15426;DHT22;7812;50.072;7.036;2023-09-12T10:22:12;35.60;99.90
15426;DHT22;7812;50.072;7.036;2023-09-12T10:24:45;35.50;99.90
15426;DHT22;7812;50.072;7.036;2023-09-12T10:27:12;35.20;99.90
15426;DHT22;7812;50.072;7.036;2023-09-12T10:29:38;34.40;99.90
15426;DHT22;7812;50.072;7.036;2023-09-12T10:32:05;34.60;99.90
15426;DHT22;7812;50.072;7.036;2023-09-12T10:34:32;34.40;99.90
15426;DHT22;7812;50.072;7.036;2023-09-12T10:36:59;33.90;99.90
15426;DHT22;7812;50.072;7.036;2023-09-12T10:39:31;31.90;99.90
15426;DHT22;7812;50.072;7.036;2023-09-12T10:42:01;31.40;99.90
15426;DHT22;7812;50.072;7.036;2023-09-12T10:44:32;30.40;99.90
15426;DHT22;7812;50.072;7.036;2023-09-12T10:46:59;29.60;99.90
15426;DHT22;7812;50.072;7.036;2023-09-12T10:49:25;29.40;99.90
15426;DHT22;7812;50.072;7.036;2023-09-12T10:51:51;29.30;99.90
15426;DHT22;7812;50.072;7.036;2023-09-12T10:54:35;29.00;99.90
15426;DHT22;7812;50.072;7.036;2023-09-12T10:57:07;28.90;99.90
15426;DHT22;7812;50.072;7.036;2023-09-12T10:59:33;28.80;99.90
15426;DHT22;7812;50.072;7.036;2023-09-12T11:02:27;28.90;99.90
15426;DHT22;7812;50.072;7.036;2023-09-12T11:04:54;28.90;99.90
15426;DHT22;7812;50.072;7.036;2023-09-12T11:07:34;28.60;99.90
15426;DHT22;7812;50.072;7.036;2023-09-12T11:10:19;28.90;99.90
15426;DHT22;7812;50.072;7.036;2023-09-12T11:12:47;29.10;99.90
15426;DHT22;7812;50.072;7.036;2023-09-12T11:15:14;29.40;99.90
15426;DHT22;7812;50.072;7.036;2023-09-12T11:17:46;29.80;99.90
15426;DHT22;7812;50.072;7.036;2023-09-12T11:20:13;29.70;99.90
15426;DHT22;7812;50.072;7.036;2023-09-12T11:22:47;29.50;99.90
15426;DHT22;7812;50.072;7.036;2023-09-12T11:25:23;29.00;99.90
15426;DHT22;7812;50.072;7.036;2023-09-12T11:30:17;28.20;99.90
15426;DHT22;7812;50.072;7.036;2023-09-12T11:32:46;28.00;99.90
15426;DHT22;7812;50.072;7.036;2023-09-12T11:35:13;27.90;99.90
15426;DHT22;7812;50.072;7.036;2023-09-12T11:37:39;27.80;99.90
15426;DHT22;7812;50.072;7.036;2023-09-12T11:42:42;27.10;99.90
15426;DHT22;7812;50.072;7.036;2023-09-12T11:45:11;27.20;99.90
15426;DHT22;7812;50.072;7.036;2023-09-12T11:47:44;27.40;99.90
15426;DHT22;7812;50.072;7.036;2023-09-12T11:50:39;27.60;99.90
15426;DHT22;7812;50.072;7.036;2023-09-12T11:53:11;27.60;99.90
15426;DHT22;7812;50.072;7.036;2023-09-12T11:55:45;27.70;99.90
15426;DHT22;7812;50.072;7.036;2023-09-12T11:58:15;27.70;99.90
15426;DHT22;7812;50.072;7.036;2023-09-12T12:00:52;27.70;99.90
15426;DHT22;7812;50.072;7.036;2023-09-12T12:03:21;28.20;99.90
15426;DHT22;7812;50.072;7.036;2023-09-12T12:05:48;28.60;99.90
15426;DHT22;7812;50.072;7.036;2023-09-12T12:08:15;30.10;99.90
15426;DHT22;7812;50.072;7.036;2023-09-12T12:10:41;31.50;99.90
15426;DHT22;7812;50.072;7.036;2023-09-12T12:13:19;32.00;99.90
15426;DHT22;7812;50.072;7.036;2023-09-12T12:15:45;34.00;99.90
15426;DHT22;7812;50.072;7.036;2023-09-12T12:18:11;34.90;99.90
15426;DHT22;7812;50.072;7.036;2023-09-12T12:20:37;35.70;99.90
15426;DHT22;7812;50.072;7.036;2023-09-12T12:23:03;35.60;99.90
15426;DHT22;7812;50.072;7.036;2023-09-12T12:25:32;36.00;99.90
15426;DHT22;7812;50.072;7.036;2023-09-12T12:28:00;36.70;99.90
15426;DHT22;7812;50.072;7.036;2023-09-12T12:30:34;35.80;99.90
15426;DHT22;7812;50.072;7.036;2023-09-12T12:36:12;35.20;99.90
15426;DHT22;7812;50.072;7.036;2023-09-12T12:38:38;34.00;99.90
15426;DHT22;7812;50.072;7.036;2023-09-12T12:41:05;33.50;99.90
15426;DHT22;7812;50.072;7.036;2023-09-12T12:43:31;32.70;99.90
15426;DHT22;7812;50.072;7.036;2023-09-12T12:45:58;31.30;99.90
15426;DHT22;7812;50.072;7.036;2023-09-12T12:50:57;31.50;99.90
15426;DHT22;7812;50.072;7.036;2023-09-12T12:54:24;31.90;99.90
15426;DHT22;7812;50.072;7.036;2023-09-12T12:56:31;32.00;99.90
15426;DHT22;7812;50.072;7.036;2023-09-12T12:58:59;31.90;99.90
15426;DHT22;7812;50.072;7.036;2023-09-12T13:01:31;32.10;99.90
15426;DHT22;7812;50.072;7.036;2023-09-12T13:03:57;31.30;99.90
15426;DHT22;7812;50.072;7.036;2023-09-12T13:06:22;30.70;99.90
15426;DHT22;7812;50.072;7.036;2023-09-12T13:08:49;30.10;99.90
15426;DHT22;7812;50.072;7.036;2023-09-12T13:11:16;30.10;99.90
15426;DHT22;7812;50.072;7.036;2023-09-12T13:13:42;29.80;99.90
15426;DHT22;7812;50.072;7.036;2023-09-12T13:16:13;29.60;99.90
15426;DHT22;7812;50.072;7.036;2023-09-12T13:18:39;29.40;99.90
15426;DHT22;7812;50.072;7.036;2023-09-12T13:21:06;29.40;99.90
15426;DHT22;7812;50.072;7.036;2023-09-12T13:23:36;29.40;99.90
15426;DHT22;7812;50.072;7.036;2023-09-12T13:26:03;29.10;99.90
15426;DHT22;7812;50.072;7.036;2023-09-12T13:28:29;28.80;99.90
15426;DHT22;7812;50.072;7.036;2023-09-12T13:30:56;28.40;99.90
15426;DHT22;7812;50.072;7.036;2023-09-12T13:33:22;28.40;99.90
15426;DHT22;7812;50.072;7.036;2023-09-12T13:35:49;28.50;99.90
15426;DHT22;7812;50.072;7.036;2023-09-12T13:38:15;28.30;99.90
15426;DHT22;7812;50.072;7.036;2023-09-12T13:40:45;28.30;99.90
15426;DHT22;7812;50.072;7.036;2023-09-12T13:43:11;28.40;99.90
15426;DHT22;7812;50.072;7.036;2023-09-12T13:45:37;28.40;99.90
15426;DHT22;7812;50.072;7.036;2023-09-12T13:48:03;28.20;99.90
15426;DHT22;7812;50.072;7.036;2023-09-12T13:50:30;27.90;99.90
15426;DHT22;7812;50.072;7.036;2023-09-12T13:52:59;28.00;99.90
15426;DHT22;7812;50.072;7.036;2023-09-12T13:55:26;28.10;99.90
15426;DHT22;7812;50.072;7.036;2023-09-12T13:57:54;28.30;99.90
15426;DHT22;7812;50.072;7.036;2023-09-12T14:00:20;28.00;99.90
15426;DHT22;7812;50.072;7.036;2023-09-12T14:02:45;28.00;99.90
15426;DHT22;7812;50.072;7.036;2023-09-12T14:05:12;28.00;99.90
15426;DHT22;7812;50.072;7.036;2023-09-12T14:07:38;28.00;99.90
15426;DHT22;7812;50.072;7.036;2023-09-12T14:10:08;28.20;99.90
15426;DHT22;7812;50.072;7.036;2023-09-12T14:12:34;28.20;99.90
15426;DHT22;7812;50.072;7.036;2023-09-12T14:15:00;28.50;99.90
15426;DHT22;7812;50.072;7.036;2023-09-12T14:17:26;28.60;99.90
15426;DHT22;7812;50.072;7.036;2023-09-12T14:19:54;28.70;99.90
15426;DHT22;7812;50.072;7.036;2023-09-12T14:22:23;28.90;99.90
15426;DHT22;7812;50.072;7.036;2023-09-12T14:24:49;28.90;99.90
15426;DHT22;7812;50.072;7.036;2023-09-12T14:27:14;28.90;99.90
15426;DHT22;7812;50.072;7.036;2023-09-12T14:29:40;29.30;99.90
15426;DHT22;7812;50.072;7.036;2023-09-12T14:32:11;29.00;99.90
15426;DHT22;7812;50.072;7.036;2023-09-12T14:34:37;28.50;99.90
15426;DHT22;7812;50.072;7.036;2023-09-12T14:37:02;28.40;99.90
15426;DHT22;7812;50.072;7.036;2023-09-12T14:39:28;28.20;99.90
15426;DHT22;7812;50.072;7.036;2023-09-12T14:41:54;27.90;99.90
15426;DHT22;7812;50.072;7.036;2023-09-12T14:44:22;27.70;99.90
15426;DHT22;7812;50.072;7.036;2023-09-12T14:46:48;27.70;99.90
15426;DHT22;7812;50.072;7.036;2023-09-12T14:49:14;27.70;99.90
15426;DHT22;7812;50.072;7.036;2023-09-12T14:51:40;27.70;99.90
15426;DHT22;7812;50.072;7.036;2023-09-12T14:54:06;27.80;99.90
15426;DHT22;7812;50.072;7.036;2023-09-12T14:56:33;28.10;99.90
15426;DHT22;7812;50.072;7.036;2023-09-12T14:58:59;28.00;99.90
15426;DHT22;7812;50.072;7.036;2023-09-12T15:01:25;28.00;99.90
15426;DHT22;7812;50.072;7.036;2023-09-12T15:03:51;28.00;99.90
15426;DHT22;7812;50.072;7.036;2023-09-12T15:06:17;28.00;99.90
15426;DHT22;7812;50.072;7.036;2023-09-12T15:08:43;28.00;99.90
15426;DHT22;7812;50.072;7.036;2023-09-12T15:11:09;28.20;99.90
15426;DHT22;7812;50.072;7.036;2023-09-12T15:13:35;28.20;99.90
15426;DHT22;7812;50.072;7.036;2023-09-12T15:16:01;28.10;99.90
15426;DHT22;7812;50.072;7.036;2023-09-12T15:18:27;27.90;99.90
15426;DHT22;7812;50.072;7.036;2023-09-12T15:20:53;27.90;99.90
15426;DHT22;7812;50.072;7.036;2023-09-12T15:23:19;27.70;99.90
15426;DHT22;7812;50.072;7.036;2023-09-12T15:25:46;27.60;99.90
15426;DHT22;7812;50.072;7.036;2023-09-12T15:28:12;27.40;99.90
15426;DHT22;7812;50.072;7.036;2023-09-12T15:30:38;27.50;99.90
15426;DHT22;7812;50.072;7.036;2023-09-12T15:33:03;27.40;99.90
15426;DHT22;7812;50.072;7.036;2023-09-12T15:35:29;27.40;99.90
15426;DHT22;7812;50.072;7.036;2023-09-12T15:37:55;27.20;99.90
15426;DHT22;7812;50.072;7.036;2023-09-12T15:40:21;26.90;99.90
15426;DHT22;7812;50.072;7.036;2023-09-12T15:42:46;26.70;99.90
15426;DHT22;7812;50.072;7.036;2023-09-12T15:45:12;26.70;99.90
15426;DHT22;7812;50.072;7.036;2023-09-12T15:47:38;26.60;99.90
15426;DHT22;7812;50.072;7.036;2023-09-12T15:50:05;26.40;99.90
15426;DHT22;7812;50.072;7.036;2023-09-12T15:52:31;26.40;99.90
15426;DHT22;7812;50.072;7.036;2023-09-12T15:55:03;26.30;99.90
15426;DHT22;7812;50.072;7.036;2023-09-12T15:57:29;26.20;99.90
15426;DHT22;7812;50.072;7.036;2023-09-12T15:59:54;26.10;99.90
15426;DHT22;7812;50.072;7.036;2023-09-12T16:02:20;26.00;99.90
15426;DHT22;7812;50.072;7.036;2023-09-12T16:04:46;25.90;99.90
15426;DHT22;7812;50.072;7.036;2023-09-12T16:07:12;26.00;99.90
15426;DHT22;7812;50.072;7.036;2023-09-12T16:09:37;26.00;99.90
15426;DHT22;7812;50.072;7.036;2023-09-12T16:12:03;25.90;99.90